sensor_id;sensor_type;location;lat;lon;timestamp;pressure;altitude;pressure_sealevel;temperature;humidity
45357;BME280;31092;51.924;21.448;2023-02-28T00:00:06;101630.22;;;-4.90;100.00
45357;BME280;31092;51.924;21.448;2023-02-28T00:02:42;101665.13;;;-4.84;100.00
45357;BME280;31092;51.924;21.448;2023-02-28T00:05:09;101752.69;;;-4.41;100.00
45357;BME280;31092;51.924;21.448;2023-02-28T00:07:36;101652.44;;;-5.05;100.00
45357;BME280;31092;51.924;21.448;2023-02-28T00:10:03;101748.47;;;-4.47;100.00
45357;BME280;31092;51.924;21.448;2023-02-28T00:12:29;101701.94;;;-4.85;100.00
45357;BME280;31092;51.924;21.448;2023-02-28T00:14:54;101760.81;;;-4.52;100.00
45357;BME280;31092;51.924;21.448;2023-02-28T00:17:20;101646.56;;;-5.18;100.00
45357;BME280;31092;51.924;21.448;2023-02-28T00:19:48;101627.75;;;-5.40;100.00
45357;BME280;31092;51.924;21.448;2023-02-28T00:22:15;101676.31;;;-5.16;100.00
45357;BME280;31092;51.924;21.448;2023-02-28T00:24:41;101714.44;;;-4.96;100.00
45357;BME280;31092;51.924;21.448;2023-02-28T00:27:06;101633.28;;;-5.55;100.00
45357;BME280;31092;51.924;21.448;2023-02-28T00:29:31;101631.59;;;-5.58;100.00
45357;BME280;31092;51.924;21.448;2023-02-28T00:31:57;101629.97;;;-5.65;100.00
45357;BME280;31092;51.924;21.448;2023-02-28T00:34:22;101757.41;;;-4.99;100.00
45357;BME280;31092;51.924;21.448;2023-02-28T00:36:48;101652.72;;;-5.64;100.00
45357;BME280;31092;51.924;21.448;2023-02-28T00:39:14;101696.22;;;-5.50;100.00
45357;BME280;31092;51.924;21.448;2023-02-28T00:41:40;101761.03;;;-5.04;100.00
45357;BME280;31092;51.924;21.448;2023-02-28T00:44:05;101750.59;;;-5.09;100.00
45357;BME280;31092;51.924;21.448;2023-02-28T00:46:31;101668.53;;;-5.68;100.00
45357;BME280;31092;51.924;21.448;2023-02-28T00:48:56;101773.38;;;-5.10;100.00
45357;BME280;31092;51.924;21.448;2023-02-28T00:51:22;101738.81;;;-5.33;100.00
45357;BME280;31092;51.924;21.448;2023-02-28T00:53:47;101715.38;;;-5.44;100.00
45357;BME280;31092;51.924;21.448;2023-02-28T00:56:12;101737.19;;;-5.40;100.00
45357;BME280;31092;51.924;21.448;2023-02-28T00:58:39;101765.84;;;-5.28;100.00
45357;BME280;31092;51.924;21.448;2023-02-28T01:01:04;101760.81;;;-5.42;100.00
45357;BME280;31092;51.924;21.448;2023-02-28T01:03:30;101689.75;;;-5.81;100.00
45357;BME280;31092;51.924;21.448;2023-02-28T01:05:56;101658.59;;;-5.99;100.00
45357;BME280;31092;51.924;21.448;2023-02-28T01:08:21;101754.03;;;-5.54;100.00
45357;BME280;31092;51.924;21.448;2023-02-28T01:10:47;101724.66;;;-5.75;100.00
45357;BME280;31092;51.924;21.448;2023-02-28T01:13:13;101784.50;;;-5.43;100.00
45357;BME280;31092;51.924;21.448;2023-02-28T01:15:43;101778.44;;;-5.47;100.00
45357;BME280;31092;51.924;21.448;2023-02-28T01:18:09;101677.06;;;-6.05;100.00
45357;BME280;31092;51.924;21.448;2023-02-28T01:20:36;101643.31;;;-6.27;100.00
45357;BME280;31092;51.924;21.448;2023-02-28T01:23:02;101763.72;;;-5.57;100.00
45357;BME280;31092;51.924;21.448;2023-02-28T01:25:28;101636.44;;;-6.34;100.00
45357;BME280;31092;51.924;21.448;2023-02-28T01:27:53;101741.44;;;-5.86;100.00
45357;BME280;31092;51.924;21.448;2023-02-28T01:30:19;101773.41;;;-5.62;100.00
45357;BME280;31092;51.924;21.448;2023-02-28T01:32:44;101768.34;;;-5.71;100.00
45357;BME280;31092;51.924;21.448;2023-02-28T01:35:10;101749.31;;;-5.86;100.00
45357;BME280;31092;51.924;21.448;2023-02-28T01:37:35;101640.41;;;-6.64;100.00
45357;BME280;31092;51.924;21.448;2023-02-28T01:40:01;101781.72;;;-5.88;100.00
45357;BME280;31092;51.924;21.448;2023-02-28T01:42:27;101765.34;;;-6.01;100.00
45357;BME280;31092;51.924;21.448;2023-02-28T01:47:39;101691.81;;;-6.55;100.00
45357;BME280;31092;51.924;21.448;2023-02-28T01:50:10;101788.97;;;-6.03;100.00
45357;BME280;31092;51.924;21.448;2023-02-28T01:52:37;101776.88;;;-6.11;100.00
45357;BME280;31092;51.924;21.448;2023-02-28T01:55:05;101787.25;;;-6.05;100.00
45357;BME280;31092;51.924;21.448;2023-02-28T01:57:38;101775.09;;;-6.11;100.00
45357;BME280;31092;51.924;21.448;2023-02-28T02:00:11;101675.56;;;-6.79;100.00
45357;BME280;31092;51.924;21.448;2023-02-28T02:02:43;101695.53;;;-6.68;100.00
45357;BME280;31092;51.924;21.448;2023-02-28T02:05:12;101746.56;;;-6.34;100.00
45357;BME280;31092;51.924;21.448;2023-02-28T02:07:41;101760.59;;;-6.36;100.00
45357;BME280;31092;51.924;21.448;2023-02-28T02:10:13;101764.75;;;-6.21;100.00
45357;BME280;31092;51.924;21.448;2023-02-28T02:15:33;101779.75;;;-6.31;100.00
45357;BME280;31092;51.924;21.448;2023-02-28T02:18:26;101762.38;;;-6.38;100.00
45357;BME280;31092;51.924;21.448;2023-02-28T02:41:05;101767.72;;;-6.47;100.00
45357;BME280;31092;51.924;21.448;2023-02-28T02:43:51;101772.22;;;-6.56;100.00
45357;BME280;31092;51.924;21.448;2023-02-28T02:46:28;101755.72;;;-6.65;100.00
45357;BME280;31092;51.924;21.448;2023-02-28T02:48:55;101755.81;;;-6.73;100.00
45357;BME280;31092;51.924;21.448;2023-02-28T02:51:24;101774.97;;;-6.65;100.00
45357;BME280;31092;51.924;21.448;2023-02-28T02:54:13;101660.56;;;-7.37;100.00
45357;BME280;31092;51.924;21.448;2023-02-28T02:56:43;101764.69;;;-6.83;100.00
45357;BME280;31092;51.924;21.448;2023-02-28T02:59:13;101782.16;;;-6.82;100.00
45357;BME280;31092;51.924;21.448;2023-02-28T03:01:49;101769.88;;;-6.80;100.00
45357;BME280;31092;51.924;21.448;2023-02-28T03:04:18;101687.47;;;-7.24;100.00
45357;BME280;31092;51.924;21.448;2023-02-28T03:06:44;101792.50;;;-6.71;100.00
45357;BME280;31092;51.924;21.448;2023-02-28T03:09:09;101798.69;;;-6.77;100.00
45357;BME280;31092;51.924;21.448;2023-02-28T03:11:37;101790.88;;;-6.83;100.00
45357;BME280;31092;51.924;21.448;2023-02-28T03:22:21;101670.41;;;-7.62;100.00
45357;BME280;31092;51.924;21.448;2023-02-28T03:27:52;101824.88;;;-6.76;100.00
45357;BME280;31092;51.924;21.448;2023-02-28T03:30:35;101800.66;;;-6.96;100.00
45357;BME280;31092;51.924;21.448;2023-02-28T03:33:18;101811.06;;;-6.91;100.00
45357;BME280;31092;51.924;21.448;2023-02-28T03:36:00;101805.00;;;-6.93;100.00
45357;BME280;31092;51.924;21.448;2023-02-28T03:41:14;101781.59;;;-7.10;100.00
45357;BME280;31092;51.924;21.448;2023-02-28T03:43:45;101753.09;;;-7.41;100.00
45357;BME280;31092;51.924;21.448;2023-02-28T03:46:17;101825.22;;;-7.08;100.00
45357;BME280;31092;51.924;21.448;2023-02-28T03:48:53;101785.28;;;-7.33;100.00
45357;BME280;31092;51.924;21.448;2023-02-28T03:51:22;101807.84;;;-7.18;100.00
45357;BME280;31092;51.924;21.448;2023-02-28T03:53:54;101737.59;;;-7.62;100.00
45357;BME280;31092;51.924;21.448;2023-02-28T03:56:33;101791.38;;;-7.31;100.00
45357;BME280;31092;51.924;21.448;2023-02-28T03:59:20;101688.19;;;-7.93;100.00
45357;BME280;31092;51.924;21.448;2023-02-28T04:01:49;101658.66;;;-8.09;100.00
45357;BME280;31092;51.924;21.448;2023-02-28T04:04:16;101846.22;;;-7.14;100.00
45357;BME280;31092;51.924;21.448;2023-02-28T04:06:42;101732.47;;;-7.75;100.00
45357;BME280;31092;51.924;21.448;2023-02-28T04:09:11;101686.53;;;-8.03;100.00
45357;BME280;31092;51.924;21.448;2023-02-28T04:14:26;101801.09;;;-7.43;100.00
45357;BME280;31092;51.924;21.448;2023-02-28T04:16:52;101794.13;;;-7.44;100.00
45357;BME280;31092;51.924;21.448;2023-02-28T04:19:17;101795.00;;;-7.42;100.00
45357;BME280;31092;51.924;21.448;2023-02-28T04:21:45;101777.66;;;-7.56;100.00
45357;BME280;31092;51.924;21.448;2023-02-28T04:24:13;101684.81;;;-8.07;100.00
45357;BME280;31092;51.924;21.448;2023-02-28T04:26:42;101790.72;;;-7.53;100.00
45357;BME280;31092;51.924;21.448;2023-02-28T04:29:10;101821.97;;;-7.37;100.00
45357;BME280;31092;51.924;21.448;2023-02-28T04:31:35;101830.63;;;-7.28;100.00
45357;BME280;31092;51.924;21.448;2023-02-28T04:34:01;101793.31;;;-7.50;100.00
45357;BME280;31092;51.924;21.448;2023-02-28T04:36:27;101717.03;;;-8.04;100.00
45357;BME280;31092;51.924;21.448;2023-02-28T04:38:52;101750.00;;;-7.86;100.00
45357;BME280;31092;51.924;21.448;2023-02-28T04:41:22;101819.41;;;-7.42;100.00
45357;BME280;31092;51.924;21.448;2023-02-28T04:43:48;101736.13;;;-7.92;100.00
45357;BME280;31092;51.924;21.448;2023-02-28T04:46:13;101826.41;;;-7.45;100.00
45357;BME280;31092;51.924;21.448;2023-02-28T04:48:39;101745.69;;;-7.91;100.00
45357;BME280;31092;51.924;21.448;2023-02-28T04:51:09;101828.97;;;-7.38;100.00
45357;BME280;31092;51.924;21.448;2023-02-28T04:53:36;101715.28;;;-8.08;100.00
45357;BME280;31092;51.924;21.448;2023-02-28T04:56:02;101730.88;;;-7.89;100.00
45357;BME280;31092;51.924;21.448;2023-02-28T04:58:27;101809.91;;;-7.52;100.00
45357;BME280;31092;51.924;21.448;2023-02-28T05:00:54;101749.13;;;-7.86;100.00
45357;BME280;31092;51.924;21.448;2023-02-28T05:03:20;101824.72;;;-7.51;100.00
45357;BME280;31092;51.924;21.448;2023-02-28T05:05:46;101839.56;;;-7.53;100.00
45357;BME280;31092;51.924;21.448;2023-02-28T05:08:12;101864.84;;;-7.51;100.00
45357;BME280;31092;51.924;21.448;2023-02-28T05:10:37;101852.56;;;-7.44;100.00
45357;BME280;31092;51.924;21.448;2023-02-28T05:13:03;101840.41;;;-7.47;100.00
45357;BME280;31092;51.924;21.448;2023-02-28T05:15:29;101792.66;;;-7.75;100.00
45357;BME280;31092;51.924;21.448;2023-02-28T05:17:55;101796.16;;;-7.77;100.00
45357;BME280;31092;51.924;21.448;2023-02-28T05:20:20;101818.72;;;-7.68;100.00
45357;BME280;31092;51.924;21.448;2023-02-28T05:22:46;101855.22;;;-7.47;100.00
45357;BME280;31092;51.924;21.448;2023-02-28T05:25:17;101626.13;;;-8.80;100.00
45357;BME280;31092;51.924;21.448;2023-02-28T05:27:44;101844.75;;;-7.49;100.00
45357;BME280;31092;51.924;21.448;2023-02-28T05:30:10;101869.09;;;-7.36;100.00
45357;BME280;31092;51.924;21.448;2023-02-28T05:32:39;101827.47;;;-7.66;100.00
45357;BME280;31092;51.924;21.448;2023-02-28T05:35:09;101745.91;;;-8.21;100.00
45357;BME280;31092;51.924;21.448;2023-02-28T05:37:36;101878.81;;;-7.50;100.00
45357;BME280;31092;51.924;21.448;2023-02-28T05:40:02;101736.41;;;-8.37;100.00
45357;BME280;31092;51.924;21.448;2023-02-28T05:42:31;101764.19;;;-8.17;100.00
45357;BME280;31092;51.924;21.448;2023-02-28T05:44:56;101852.66;;;-7.58;100.00
45357;BME280;31092;51.924;21.448;2023-02-28T05:47:22;101856.13;;;-7.51;100.00
45357;BME280;31092;51.924;21.448;2023-02-28T05:49:47;101854.34;;;-7.46;100.00
45357;BME280;31092;51.924;21.448;2023-02-28T05:52:13;101856.94;;;-7.44;100.00
45357;BME280;31092;51.924;21.448;2023-02-28T05:54:38;101810.88;;;-7.64;100.00
45357;BME280;31092;51.924;21.448;2023-02-28T05:57:04;101859.44;;;-7.28;100.00
45357;BME280;31092;51.924;21.448;2023-02-28T05:59:29;101763.84;;;-7.72;100.00
45357;BME280;31092;51.924;21.448;2023-02-28T06:01:55;101863.63;;;-7.10;100.00
45357;BME280;31092;51.924;21.448;2023-02-28T06:04:21;101879.19;;;-6.94;100.00
45357;BME280;31092;51.924;21.448;2023-02-28T06:06:49;101839.25;;;-7.16;100.00
45357;BME280;31092;51.924;21.448;2023-02-28T06:09:15;101759.34;;;-7.56;100.00
45357;BME280;31092;51.924;21.448;2023-02-28T06:11:41;101819.91;;;-7.05;100.00
45357;BME280;31092;51.924;21.448;2023-02-28T06:14:09;101865.06;;;-6.80;100.00
45357;BME280;31092;51.924;21.448;2023-02-28T06:16:39;101720.09;;;-7.56;100.00
45357;BME280;31092;51.924;21.448;2023-02-28T06:19:04;101784.22;;;-7.10;100.00
45357;BME280;31092;51.924;21.448;2023-02-28T06:21:30;101871.72;;;-6.48;100.00
45357;BME280;31092;51.924;21.448;2023-02-28T06:23:57;101877.78;;;-6.43;100.00
45357;BME280;31092;51.924;21.448;2023-02-28T06:26:23;101834.44;;;-6.71;100.00
45357;BME280;31092;51.924;21.448;2023-02-28T06:28:48;101764.69;;;-6.82;100.00
45357;BME280;31092;51.924;21.448;2023-02-28T06:31:16;101887.00;;;-6.08;100.00
45357;BME280;31092;51.924;21.448;2023-02-28T06:33:43;101847.69;;;-6.13;100.00
45357;BME280;31092;51.924;21.448;2023-02-28T06:36:10;101829.44;;;-6.19;100.00
45357;BME280;31092;51.924;21.448;2023-02-28T06:38:36;101779.00;;;-6.39;100.00
45357;BME280;31092;51.924;21.448;2023-02-28T06:41:02;101879.50;;;-5.75;100.00
45357;BME280;31092;51.924;21.448;2023-02-28T06:43:29;101861.88;;;-5.67;100.00
45357;BME280;31092;51.924;21.448;2023-02-28T06:45:57;101781.13;;;-6.06;100.00
45357;BME280;31092;51.924;21.448;2023-02-28T06:48:23;101794.75;;;-5.82;100.00
45357;BME280;31092;51.924;21.448;2023-02-28T06:50:49;101753.88;;;-5.94;100.00
45357;BME280;31092;51.924;21.448;2023-02-28T06:53:14;101854.13;;;-5.21;100.00
45357;BME280;31092;51.924;21.448;2023-02-28T06:55:40;101847.06;;;-5.16;100.00
45357;BME280;31092;51.924;21.448;2023-02-28T06:58:07;101769.69;;;-5.49;100.00
45357;BME280;31092;51.924;21.448;2023-02-28T07:00:44;101876.94;;;-4.72;100.00
45357;BME280;31092;51.924;21.448;2023-02-28T07:03:11;101873.13;;;-4.57;100.00
45357;BME280;31092;51.924;21.448;2023-02-28T07:05:38;101850.22;;;-4.52;100.00
45357;BME280;31092;51.924;21.448;2023-02-28T07:08:05;101852.53;;;-4.34;100.00
45357;BME280;31092;51.924;21.448;2023-02-28T07:10:34;101850.47;;;-4.21;100.00
45357;BME280;31092;51.924;21.448;2023-02-28T07:13:03;101811.97;;;-4.25;100.00
45357;BME280;31092;51.924;21.448;2023-02-28T07:15:29;101763.09;;;-4.35;100.00
45357;BME280;31092;51.924;21.448;2023-02-28T07:17:54;101861.66;;;-3.69;100.00
45357;BME280;31092;51.924;21.448;2023-02-28T07:20:21;101824.44;;;-3.93;100.00
45357;BME280;31092;51.924;21.448;2023-02-28T07:22:48;101821.91;;;-3.60;100.00
45357;BME280;31092;51.924;21.448;2023-02-28T07:25:21;101735.91;;;-3.97;100.00
45357;BME280;31092;51.924;21.448;2023-02-28T07:27:46;101801.47;;;-3.50;100.00
45357;BME280;31092;51.924;21.448;2023-02-28T07:30:12;101763.16;;;-3.62;100.00
45357;BME280;31092;51.924;21.448;2023-02-28T07:32:38;101873.69;;;-2.87;100.00
45357;BME280;31092;51.924;21.448;2023-02-28T07:35:04;101821.25;;;-2.98;100.00
45357;BME280;31092;51.924;21.448;2023-02-28T07:37:29;101814.91;;;-2.91;100.00
45357;BME280;31092;51.924;21.448;2023-02-28T07:39:56;101837.75;;;-2.59;100.00
45357;BME280;31092;51.924;21.448;2023-02-28T07:42:22;101825.34;;;-2.55;100.00
45357;BME280;31092;51.924;21.448;2023-02-28T07:44:47;101813.63;;;-2.45;100.00
45357;BME280;31092;51.924;21.448;2023-02-28T07:47:13;101858.09;;;-2.02;100.00
45357;BME280;31092;51.924;21.448;2023-02-28T07:49:38;101755.38;;;-2.39;100.00
45357;BME280;31092;51.924;21.448;2023-02-28T07:52:06;101747.00;;;-2.24;100.00
45357;BME280;31092;51.924;21.448;2023-02-28T07:54:32;101799.03;;;-1.71;100.00
45357;BME280;31092;51.924;21.448;2023-02-28T07:56:58;101752.59;;;-1.78;100.00
45357;BME280;31092;51.924;21.448;2023-02-28T07:59:23;101815.97;;;-1.24;100.00
45357;BME280;31092;51.924;21.448;2023-02-28T08:01:49;101846.88;;;-0.99;100.00
45357;BME280;31092;51.924;21.448;2023-02-28T08:04:17;101864.66;;;-0.78;100.00
45357;BME280;31092;51.924;21.448;2023-02-28T08:06:42;101834.56;;;-0.75;100.00
45357;BME280;31092;51.924;21.448;2023-02-28T08:09:08;101757.84;;;-1.00;100.00
45357;BME280;31092;51.924;21.448;2023-02-28T08:11:33;101764.00;;;-0.75;100.00
45357;BME280;31092;51.924;21.448;2023-02-28T08:13:59;101848.97;;;-0.10;100.00
45357;BME280;31092;51.924;21.448;2023-02-28T08:16:24;101750.47;;;-0.43;100.00
45357;BME280;31092;51.924;21.448;2023-02-28T08:18:53;101856.00;;;0.36;100.00
45357;BME280;31092;51.924;21.448;2023-02-28T08:21:20;101753.53;;;-0.31;100.00
45357;BME280;31092;51.924;21.448;2023-02-28T08:23:50;101776.19;;;0.00;100.00
45357;BME280;31092;51.924;21.448;2023-02-28T08:26:16;101834.09;;;0.53;100.00
45357;BME280;31092;51.924;21.448;2023-02-28T08:28:42;101841.03;;;0.57;100.00
45357;BME280;31092;51.924;21.448;2023-02-28T08:31:13;101772.53;;;0.03;100.00
45357;BME280;31092;51.924;21.448;2023-02-28T08:33:39;101823.81;;;0.23;100.00
45357;BME280;31092;51.924;21.448;2023-02-28T08:36:06;101786.09;;;0.17;100.00
45357;BME280;31092;51.924;21.448;2023-02-28T08:38:32;101846.03;;;0.85;100.00
45357;BME280;31092;51.924;21.448;2023-02-28T08:40:59;101697.59;;;0.21;100.00
45357;BME280;31092;51.924;21.448;2023-02-28T08:43:25;101845.25;;;0.83;100.00
45357;BME280;31092;51.924;21.448;2023-02-28T08:45:52;101742.06;;;0.35;100.00
45357;BME280;31092;51.924;21.448;2023-02-28T08:48:17;101822.91;;;1.09;100.00
45357;BME280;31092;51.924;21.448;2023-02-28T08:50:43;101794.28;;;1.36;100.00
45357;BME280;31092;51.924;21.448;2023-02-28T08:53:08;101841.63;;;1.66;100.00
45357;BME280;31092;51.924;21.448;2023-02-28T08:55:34;101738.31;;;1.22;100.00
45357;BME280;31092;51.924;21.448;2023-02-28T08:57:59;101837.16;;;1.87;100.00
45357;BME280;31092;51.924;21.448;2023-02-28T09:00:26;101814.34;;;1.62;100.00
45357;BME280;31092;51.924;21.448;2023-02-28T09:02:52;101767.84;;;1.14;100.00
45357;BME280;31092;51.924;21.448;2023-02-28T09:05:17;101829.28;;;1.65;100.00
45357;BME280;31092;51.924;21.448;2023-02-28T09:07:43;101803.47;;;1.87;100.00
45357;BME280;31092;51.924;21.448;2023-02-28T09:10:09;101814.78;;;2.29;100.00
45357;BME280;31092;51.924;21.448;2023-02-28T09:12:35;101787.41;;;2.27;100.00
45357;BME280;31092;51.924;21.448;2023-02-28T09:15:01;101823.63;;;2.66;100.00
45357;BME280;31092;51.924;21.448;2023-02-28T09:17:26;101740.19;;;2.32;100.00
45357;BME280;31092;51.924;21.448;2023-02-28T09:19:52;101727.84;;;2.66;100.00
45357;BME280;31092;51.924;21.448;2023-02-28T09:22:17;101810.19;;;2.86;100.00
45357;BME280;31092;51.924;21.448;2023-02-28T09:24:43;101702.41;;;2.25;100.00
45357;BME280;31092;51.924;21.448;2023-02-28T09:27:10;101748.56;;;2.42;100.00
45357;BME280;31092;51.924;21.448;2023-02-28T09:29:35;101855.72;;;2.80;100.00
45357;BME280;31092;51.924;21.448;2023-02-28T09:32:01;101789.50;;;2.20;100.00
45357;BME280;31092;51.924;21.448;2023-02-28T09:34:28;101840.44;;;2.66;100.00
45357;BME280;31092;51.924;21.448;2023-02-28T09:36:56;101761.63;;;2.29;100.00
45357;BME280;31092;51.924;21.448;2023-02-28T09:39:22;101859.41;;;2.95;100.00
45357;BME280;31092;51.924;21.448;2023-02-28T09:41:53;101853.25;;;2.58;100.00
45357;BME280;31092;51.924;21.448;2023-02-28T09:46:57;101845.91;;;2.27;100.00
45357;BME280;31092;51.924;21.448;2023-02-28T09:49:31;101832.69;;;2.61;100.00
45357;BME280;31092;51.924;21.448;2023-02-28T09:52:02;101847.50;;;3.02;100.00
45357;BME280;31092;51.924;21.448;2023-02-28T09:54:31;101837.25;;;2.77;100.00
45357;BME280;31092;51.924;21.448;2023-02-28T09:57:30;101868.38;;;2.57;100.00
45357;BME280;31092;51.924;21.448;2023-02-28T10:05:41;101753.69;;;1.91;100.00
45357;BME280;31092;51.924;21.448;2023-02-28T10:08:16;101845.25;;;3.11;100.00
45357;BME280;31092;51.924;21.448;2023-02-28T10:10:46;101848.38;;;3.20;100.00
45357;BME280;31092;51.924;21.448;2023-02-28T10:15:42;101842.53;;;2.96;100.00
45357;BME280;31092;51.924;21.448;2023-02-28T10:18:14;101766.19;;;2.08;100.00
45357;BME280;31092;51.924;21.448;2023-02-28T10:20:42;101757.66;;;1.82;100.00
45357;BME280;31092;51.924;21.448;2023-02-28T10:23:17;101770.00;;;2.38;100.00
45357;BME280;31092;51.924;21.448;2023-02-28T10:25:50;101758.25;;;2.25;100.00
45357;BME280;31092;51.924;21.448;2023-02-28T10:28:18;101840.06;;;2.74;100.00
45357;BME280;31092;51.924;21.448;2023-02-28T10:30:47;101824.25;;;2.88;100.00
45357;BME280;31092;51.924;21.448;2023-02-28T10:33:30;101860.44;;;3.09;100.00
45357;BME280;31092;51.924;21.448;2023-02-28T10:35:56;101729.09;;;2.58;100.00
45357;BME280;31092;51.924;21.448;2023-02-28T10:38:49;101853.03;;;3.67;100.00
45357;BME280;31092;51.924;21.448;2023-02-28T10:41:28;101839.31;;;3.24;100.00
45357;BME280;31092;51.924;21.448;2023-02-28T10:44:21;101797.06;;;2.47;100.00
45357;BME280;31092;51.924;21.448;2023-02-28T10:46:49;101832.13;;;2.55;100.00
45357;BME280;31092;51.924;21.448;2023-02-28T10:49:22;101824.28;;;2.52;100.00
45357;BME280;31092;51.924;21.448;2023-02-28T10:51:55;101786.28;;;2.50;100.00
45357;BME280;31092;51.924;21.448;2023-02-28T10:54:31;101744.63;;;2.14;100.00
45357;BME280;31092;51.924;21.448;2023-02-28T10:57:28;101857.16;;;2.87;100.00
45357;BME280;31092;51.924;21.448;2023-02-28T11:00:13;101852.28;;;2.95;100.00
45357;BME280;31092;51.924;21.448;2023-02-28T11:02:39;101838.03;;;2.79;100.00
45357;BME280;31092;51.924;21.448;2023-02-28T11:05:32;101841.84;;;2.73;100.00
45357;BME280;31092;51.924;21.448;2023-02-28T11:08:17;101850.25;;;2.83;100.00
45357;BME280;31092;51.924;21.448;2023-02-28T11:10:54;101766.28;;;2.60;100.00
45357;BME280;31092;51.924;21.448;2023-02-28T11:13:33;101749.84;;;2.86;100.00
45357;BME280;31092;51.924;21.448;2023-02-28T11:16:02;101699.50;;;2.99;100.00
45357;BME280;31092;51.924;21.448;2023-02-28T11:18:30;101828.97;;;3.84;100.00
45357;BME280;31092;51.924;21.448;2023-02-28T11:20:59;101814.94;;;3.31;100.00
45357;BME280;31092;51.924;21.448;2023-02-28T11:23:29;101739.31;;;2.49;100.00
45357;BME280;31092;51.924;21.448;2023-02-28T11:25:59;101817.00;;;2.74;100.00
45357;BME280;31092;51.924;21.448;2023-02-28T11:33:53;101758.44;;;2.57;100.00
45357;BME280;31092;51.924;21.448;2023-02-28T11:36:24;101812.00;;;2.85;100.00
45357;BME280;31092;51.924;21.448;2023-02-28T11:38:54;101782.00;;;2.64;100.00
45357;BME280;31092;51.924;21.448;2023-02-28T11:46:50;101775.84;;;2.28;100.00
45357;BME280;31092;51.924;21.448;2023-02-28T11:49:28;101789.81;;;2.50;100.00
45357;BME280;31092;51.924;21.448;2023-02-28T11:54:56;101778.44;;;2.29;100.00
45357;BME280;31092;51.924;21.448;2023-02-28T11:57:38;101773.91;;;2.31;100.00
45357;BME280;31092;51.924;21.448;2023-02-28T12:08:36;101773.38;;;2.42;100.00
45357;BME280;31092;51.924;21.448;2023-02-28T12:13:46;101758.13;;;2.46;100.00
45357;BME280;31092;51.924;21.448;2023-02-28T12:16:38;101742.00;;;2.49;100.00
45357;BME280;31092;51.924;21.448;2023-02-28T12:22:04;101750.69;;;2.52;100.00
45357;BME280;31092;51.924;21.448;2023-02-28T12:27:43;101647.72;;;2.02;100.00
45357;BME280;31092;51.924;21.448;2023-02-28T12:30:21;101742.22;;;2.44;100.00
45357;BME280;31092;51.924;21.448;2023-02-28T12:33:08;101622.22;;;1.81;100.00
45357;BME280;31092;51.924;21.448;2023-02-28T12:35:58;101687.56;;;2.21;100.00
45357;BME280;31092;51.924;21.448;2023-02-28T12:38:28;101656.97;;;2.12;100.00
45357;BME280;31092;51.924;21.448;2023-02-28T12:41:02;101684.28;;;2.33;100.00
45357;BME280;31092;51.924;21.448;2023-02-28T12:43:38;101721.34;;;2.54;100.00
45357;BME280;31092;51.924;21.448;2023-02-28T12:46:21;101653.06;;;2.20;100.00
45357;BME280;31092;51.924;21.448;2023-02-28T12:48:52;101598.81;;;1.89;100.00
45357;BME280;31092;51.924;21.448;2023-02-28T12:51:19;101617.78;;;1.99;100.00
45357;BME280;31092;51.924;21.448;2023-02-28T12:59:41;101648.53;;;2.22;100.00
45357;BME280;31092;51.924;21.448;2023-02-28T13:04:52;101720.88;;;2.80;100.00
45357;BME280;31092;51.924;21.448;2023-02-28T13:10:42;101601.94;;;2.14;100.00
45357;BME280;31092;51.924;21.448;2023-02-28T13:13:15;101693.66;;;2.75;100.00
45357;BME280;31092;51.924;21.448;2023-02-28T13:15:57;101580.81;;;2.29;100.00
45357;BME280;31092;51.924;21.448;2023-02-28T13:20:54;101683.75;;;2.95;100.00
45357;BME280;31092;51.924;21.448;2023-02-28T13:26:22;101687.59;;;2.89;100.00
45357;BME280;31092;51.924;21.448;2023-02-28T13:34:41;101587.41;;;2.55;100.00
45357;BME280;31092;51.924;21.448;2023-02-28T13:47:38;101691.94;;;3.07;100.00
45357;BME280;31092;51.924;21.448;2023-02-28T14:06:38;101614.66;;;2.60;100.00
45357;BME280;31092;51.924;21.448;2023-02-28T14:11:40;101633.78;;;2.67;100.00
45357;BME280;31092;51.924;21.448;2023-02-28T14:14:08;101553.06;;;2.17;100.00
45357;BME280;31092;51.924;21.448;2023-02-28T14:19:15;101642.94;;;2.78;100.00
45357;BME280;31092;51.924;21.448;2023-02-28T14:27:53;101519.56;;;1.97;100.00
45357;BME280;31092;51.924;21.448;2023-02-28T14:30:43;101634.31;;;2.73;100.00
45357;BME280;31092;51.924;21.448;2023-02-28T14:36:25;101538.03;;;2.16;100.00
45357;BME280;31092;51.924;21.448;2023-02-28T14:39:01;101595.09;;;2.44;100.00
45357;BME280;31092;51.924;21.448;2023-02-28T14:41:32;101624.66;;;2.55;100.00
45357;BME280;31092;51.924;21.448;2023-02-28T14:44:00;101620.13;;;2.57;100.00
45357;BME280;31092;51.924;21.448;2023-02-28T14:46:35;101490.63;;;1.74;100.00
45357;BME280;31092;51.924;21.448;2023-02-28T14:49:04;101623.25;;;2.48;100.00
45357;BME280;31092;51.924;21.448;2023-02-28T14:51:30;101527.06;;;1.89;100.00
45357;BME280;31092;51.924;21.448;2023-02-28T14:53:59;101499.78;;;1.68;100.00
45357;BME280;31092;51.924;21.448;2023-02-28T14:59:00;101589.19;;;2.21;100.00
45357;BME280;31092;51.924;21.448;2023-02-28T15:01:26;101484.25;;;1.60;100.00
45357;BME280;31092;51.924;21.448;2023-02-28T15:04:04;101500.94;;;1.62;100.00
45357;BME280;31092;51.924;21.448;2023-02-28T15:06:31;101588.94;;;2.08;100.00
45357;BME280;31092;51.924;21.448;2023-02-28T15:09:16;101546.22;;;1.78;100.00
45357;BME280;31092;51.924;21.448;2023-02-28T15:11:47;101473.22;;;1.33;100.00
45357;BME280;31092;51.924;21.448;2023-02-28T15:14:19;101566.75;;;1.75;100.00